Aviation Digital Data Service (ADDS)

Output produced by METARs form (2312 UTC 28 August 2014)
found at http://aviationweather.gov/adds/metars/
 
KBDR 282030Z 2821/2918 34013G18KT P6SM SCT050 
     FM282300 34009KT P6SM FEW050 
     FM290300 35005KT P6SM SKC 
     FM291400 03007KT P6SM SKC 
     FM291700 15006KT P6SM SKC